createdAt,value
2018-08-06T00:02:19.100Z,1.30
2018-08-06T00:04:46.947Z,0.80
2018-08-06T00:07:14.851Z,0.93
2018-08-06T00:09:42.695Z,0.90
2018-08-06T00:12:10.607Z,1.27
2018-08-06T00:14:38.813Z,1.00
2018-08-06T00:17:06.850Z,0.97
2018-08-06T00:19:34.705Z,1.30
2018-08-06T00:22:02.537Z,0.93
2018-08-06T00:24:30.354Z,1.40
2018-08-06T00:26:58.214Z,1.43
2018-08-06T00:29:26.066Z,1.10
2018-08-06T00:31:53.873Z,1.00
2018-08-06T00:34:21.705Z,1.40
2018-08-06T00:36:49.579Z,1.33
2018-08-06T00:39:17.517Z,1.27
2018-08-06T00:41:45.365Z,1.20
2018-08-06T00:44:13.196Z,1.47
2018-08-06T00:46:41.010Z,1.20
2018-08-06T00:49:08.845Z,1.53
2018-08-06T00:51:36.694Z,1.33
2018-08-06T00:54:04.524Z,1.50
2018-08-06T00:56:32.358Z,1.23
2018-08-06T00:59:00.196Z,1.07
2018-08-06T01:01:28.023Z,1.60
2018-08-06T01:03:55.859Z,1.30
2018-08-06T01:06:23.700Z,1.80
2018-08-06T01:08:51.539Z,1.60
2018-08-06T01:11:19.354Z,1.43
2018-08-06T01:13:47.190Z,1.50
2018-08-06T01:16:15.074Z,1.40
2018-08-06T01:18:42.897Z,1.40
2018-08-06T01:21:10.761Z,1.40
2018-08-06T01:23:38.594Z,1.73
2018-08-06T01:26:06.438Z,1.47
2018-08-06T01:28:34.279Z,1.40
2018-08-06T01:31:02.137Z,1.47
2018-08-06T01:33:29.962Z,1.20
2018-08-06T01:35:57.781Z,1.57
2018-08-06T01:38:25.620Z,1.40
2018-08-06T01:40:53.445Z,1.70
2018-08-06T01:43:21.276Z,1.57
2018-08-06T01:45:49.169Z,1.23
2018-08-06T01:48:16.952Z,1.70
2018-08-06T01:50:44.775Z,1.53
2018-08-06T01:53:12.634Z,1.40
2018-08-06T01:55:40.465Z,1.57
2018-08-06T01:58:08.308Z,1.60
2018-08-06T02:00:36.150Z,2.20
2018-08-06T02:03:03.989Z,1.63
2018-08-06T02:05:31.805Z,1.50
2018-08-06T02:07:59.909Z,1.47
2018-08-06T02:10:27.757Z,1.70
2018-08-06T02:12:55.598Z,1.50
2018-08-06T02:15:23.413Z,1.60
2018-08-06T02:17:51.245Z,1.70
2018-08-06T02:20:19.084Z,1.43
2018-08-06T02:22:47.528Z,1.90
2018-08-06T02:25:15.438Z,1.50
2018-08-06T02:27:43.719Z,1.70
2018-08-06T02:30:12.661Z,1.80
2018-08-06T02:32:40.847Z,1.57
2018-08-06T02:35:10.301Z,1.63
2018-08-06T02:37:38.200Z,1.73
2018-08-06T02:40:06.941Z,2.40
2018-08-06T02:42:34.792Z,1.50
2018-08-06T02:45:02.609Z,2.40
2018-08-06T02:47:30.442Z,2.27
2018-08-06T02:49:58.305Z,1.90
2018-08-06T02:52:26.165Z,2.03
2018-08-06T02:54:54.012Z,2.00
2018-08-06T02:57:22.016Z,2.00
2018-08-06T02:59:49.873Z,2.00
2018-08-06T03:02:17.709Z,2.30
2018-08-06T03:04:45.675Z,1.60
2018-08-06T03:07:13.479Z,1.60
2018-08-06T03:09:41.305Z,2.23
2018-08-06T03:12:09.141Z,2.20
2018-08-06T03:14:36.978Z,2.13
2018-08-06T03:17:04.945Z,1.90
2018-08-06T03:19:32.757Z,2.10
2018-08-06T03:22:00.572Z,2.20
2018-08-06T03:24:28.411Z,2.27
2018-08-06T03:26:56.241Z,1.90
2018-08-06T03:29:24.078Z,2.03
2018-08-06T03:31:51.916Z,2.40
2018-08-06T03:34:19.744Z,2.20
2018-08-06T03:36:47.576Z,1.40
2018-08-06T03:39:15.407Z,2.40
2018-08-06T03:41:43.232Z,2.47
2018-08-06T03:44:11.060Z,2.37
2018-08-06T03:46:38.905Z,2.20
2018-08-06T03:49:06.719Z,2.30
2018-08-06T03:51:34.569Z,2.47
2018-08-06T03:54:02.400Z,3.30
2018-08-06T03:56:30.231Z,2.93
2018-08-06T03:58:58.059Z,2.77
2018-08-06T04:01:25.897Z,2.40
2018-08-06T04:03:53.725Z,2.60
2018-08-06T04:06:21.581Z,2.17
2018-08-06T04:08:49.421Z,2.27
2018-08-06T04:11:17.270Z,2.40
2018-08-06T04:13:45.508Z,2.60
2018-08-06T04:16:13.924Z,3.60
2018-08-06T04:18:41.930Z,3.00
2018-08-06T04:21:09.744Z,2.63
2018-08-06T04:23:37.573Z,2.50
2018-08-06T04:26:05.406Z,2.80
2018-08-06T04:28:33.248Z,2.20
2018-08-06T04:31:01.085Z,2.23
2018-08-06T04:33:28.931Z,2.17
2018-08-06T04:35:56.777Z,2.10
2018-08-06T04:38:24.664Z,2.47
2018-08-06T04:40:52.472Z,2.83
2018-08-06T04:43:20.292Z,2.23
2018-08-06T04:45:48.125Z,2.23
2018-08-06T04:48:15.952Z,2.60
2018-08-06T04:50:43.797Z,2.00
2018-08-06T04:53:11.629Z,2.13
2018-08-06T04:55:39.535Z,1.90
2018-08-06T04:58:07.352Z,2.20
2018-08-06T05:00:35.184Z,1.53
2018-08-06T05:03:03.009Z,1.43
2018-08-06T05:05:30.857Z,1.60
2018-08-06T05:07:58.684Z,1.80
2018-08-06T05:10:26.572Z,1.63
2018-08-06T05:12:54.414Z,1.77
2018-08-06T05:15:22.231Z,2.60
2018-08-06T05:17:50.469Z,1.87
2018-08-06T05:20:18.291Z,2.07
2018-08-06T05:22:46.137Z,2.53
2018-08-06T05:25:13.992Z,1.70
2018-08-06T05:27:41.869Z,2.20
2018-08-06T05:30:10.337Z,1.90
2018-08-06T05:32:38.210Z,2.00
2018-08-06T05:35:06.180Z,2.40
2018-08-06T05:37:34.017Z,1.80
2018-08-06T05:40:01.952Z,2.40
2018-08-06T05:42:29.739Z,1.93
2018-08-06T05:44:57.552Z,1.63
2018-08-06T05:47:25.405Z,3.63
2018-08-06T05:49:53.225Z,1.90
2018-08-06T05:52:21.071Z,2.03
2018-08-06T05:54:48.909Z,2.40
2018-08-06T05:57:16.752Z,1.90
2018-08-06T05:59:44.580Z,1.97
2018-08-06T06:02:12.410Z,2.23
2018-08-06T06:04:40.232Z,1.50
2018-08-06T06:07:08.077Z,1.90
2018-08-06T06:09:35.887Z,1.90
2018-08-06T06:12:03.749Z,2.30
2018-08-06T06:14:31.572Z,2.10
2018-08-06T06:16:59.413Z,2.17
2018-08-06T06:19:27.237Z,1.90
2018-08-06T06:21:55.101Z,2.50
2018-08-06T06:24:22.933Z,1.50
2018-08-06T06:26:50.792Z,1.77
2018-08-06T06:29:18.613Z,1.60
2018-08-06T06:31:46.462Z,1.80
2018-08-06T06:34:14.281Z,2.10
2018-08-06T06:36:42.115Z,1.30
2018-08-06T06:39:11.024Z,1.43
2018-08-06T06:41:39.223Z,1.40
2018-08-06T06:44:07.736Z,1.40
2018-08-06T06:46:35.564Z,1.50
2018-08-06T06:49:03.645Z,1.93
2018-08-06T06:51:31.327Z,1.30
2018-08-06T06:54:00.648Z,1.40
2018-08-06T06:56:28.508Z,1.67
2018-08-06T06:58:56.377Z,1.40
2018-08-06T07:01:24.227Z,1.30
2018-08-06T07:03:52.083Z,1.37
2018-08-06T07:06:19.930Z,1.00
2018-08-06T07:08:47.751Z,2.07
2018-08-06T07:11:15.568Z,1.40
2018-08-06T07:13:43.510Z,1.20
2018-08-06T07:16:11.309Z,1.30
2018-08-06T07:18:39.155Z,1.40
2018-08-06T07:21:06.981Z,1.23
2018-08-06T07:23:34.816Z,1.13
2018-08-06T07:26:02.725Z,1.53
2018-08-06T07:28:30.512Z,1.70
2018-08-06T07:30:58.341Z,1.03
2018-08-06T07:33:26.198Z,1.43
2018-08-06T07:35:54.020Z,1.87
2018-08-06T07:38:21.850Z,1.37
2018-08-06T07:40:49.693Z,1.37
2018-08-06T07:43:17.575Z,1.23
2018-08-06T07:45:45.376Z,1.00
2018-08-06T07:48:13.222Z,1.10
2018-08-06T07:50:41.073Z,1.77
2018-08-06T07:53:08.942Z,1.23
2018-08-06T07:55:36.795Z,1.37
2018-08-06T07:58:04.745Z,1.50
2018-08-06T08:00:32.586Z,2.13
2018-08-06T08:03:00.417Z,1.37
2018-08-06T08:05:28.274Z,1.40
2018-08-06T08:07:56.117Z,1.30
2018-08-06T08:10:24.267Z,1.00
2018-08-06T08:12:52.145Z,1.20
2018-08-06T08:15:21.815Z,1.20
2018-08-06T08:17:49.688Z,1.27
2018-08-06T08:20:17.863Z,1.13
2018-08-06T08:22:45.564Z,1.10
2018-08-06T08:25:14.067Z,1.50
2018-08-06T08:27:41.899Z,1.30
2018-08-06T08:30:10.630Z,1.00
2018-08-06T08:32:38.476Z,1.10
2018-08-06T08:35:06.384Z,1.40
2018-08-06T08:37:34.940Z,0.87
2018-08-06T08:40:03.467Z,1.37
2018-08-06T08:42:31.304Z,0.93
2018-08-06T08:44:59.140Z,1.40
2018-08-06T08:47:26.969Z,1.30
2018-08-06T08:49:54.820Z,1.17
2018-08-06T08:52:22.716Z,0.97
2018-08-06T08:54:50.563Z,1.20
2018-08-06T08:57:18.393Z,1.00
2018-08-06T08:59:46.216Z,1.23
2018-08-06T09:02:14.047Z,1.07
2018-08-06T09:04:41.872Z,1.30
2018-08-06T09:07:09.721Z,1.07
2018-08-06T09:09:37.541Z,0.93
2018-08-06T09:12:05.372Z,1.10
2018-08-06T09:14:33.188Z,1.30
2018-08-06T09:17:01.038Z,0.90
2018-08-06T09:19:28.851Z,1.00
2018-08-06T09:21:56.708Z,1.00
2018-08-06T09:24:24.553Z,1.13
2018-08-06T09:26:52.456Z,1.30
2018-08-06T09:29:20.221Z,1.20
2018-08-06T09:31:48.164Z,1.10
2018-08-06T09:34:15.977Z,1.30
2018-08-06T09:36:43.828Z,0.93
2018-08-06T09:39:12.844Z,1.00
2018-08-06T09:41:40.679Z,0.90
2018-08-06T09:44:08.549Z,1.13
2018-08-06T09:46:36.748Z,1.30
2018-08-06T09:49:05.120Z,0.90
2018-08-06T09:51:32.961Z,0.80
2018-08-06T09:54:01.245Z,1.20
2018-08-06T09:56:29.063Z,1.40
2018-08-06T09:58:56.900Z,0.80
2018-08-06T10:01:30.364Z,0.83
2018-08-06T10:03:58.185Z,0.80
2018-08-06T10:06:26.131Z,0.93
2018-08-06T10:08:53.859Z,0.90
2018-08-06T10:11:21.672Z,1.00
2018-08-06T10:13:49.511Z,1.00
2018-08-06T10:16:17.339Z,0.97
2018-08-06T10:18:45.199Z,1.10
2018-08-06T10:21:13.008Z,1.10
2018-08-06T10:23:40.858Z,1.00
2018-08-06T10:26:08.672Z,0.90
2018-08-06T10:28:36.512Z,1.20
2018-08-06T10:31:04.349Z,1.20
2018-08-06T10:33:32.293Z,0.93
2018-08-06T10:36:00.160Z,0.90
2018-08-06T10:38:27.979Z,1.00
2018-08-06T10:40:55.813Z,1.30
2018-08-06T10:43:23.653Z,0.97
2018-08-06T10:45:51.463Z,1.10
2018-08-06T10:48:19.338Z,0.90
2018-08-06T10:50:47.124Z,1.43
2018-08-06T10:53:14.977Z,1.40
2018-08-06T10:55:42.805Z,1.00
2018-08-06T10:58:10.631Z,1.20
2018-08-06T11:00:38.444Z,1.07
2018-08-06T11:03:06.296Z,0.97
2018-08-06T11:05:34.140Z,1.00
2018-08-06T11:08:02.006Z,1.10
2018-08-06T11:10:29.828Z,1.00
2018-08-06T11:12:57.683Z,1.00
2018-08-06T11:15:26.353Z,1.10
2018-08-06T11:17:54.177Z,1.00
2018-08-06T11:20:22.463Z,1.00
2018-08-06T11:22:50.350Z,1.10
2018-08-06T11:25:19.361Z,1.40
2018-08-06T11:27:47.397Z,0.90
2018-08-06T11:30:16.492Z,1.17
2018-08-06T11:32:44.716Z,1.00
2018-08-06T11:35:12.886Z,1.20
2018-08-06T11:37:41.169Z,1.03
2018-08-06T11:40:10.668Z,0.60
2018-08-06T11:42:39.304Z,0.90
2018-08-06T11:45:08.100Z,1.40
2018-08-06T11:47:35.915Z,0.73
2018-08-06T11:50:04.289Z,1.20
2018-08-06T11:52:32.124Z,0.90
2018-08-06T11:55:00.017Z,1.00
2018-08-06T11:57:27.920Z,0.83
2018-08-06T11:59:55.760Z,1.10
2018-08-06T12:02:23.763Z,1.40
2018-08-06T12:04:51.588Z,0.80
2018-08-06T12:07:19.445Z,0.80
2018-08-06T12:09:47.345Z,1.03
2018-08-06T12:12:15.173Z,0.80
2018-08-06T12:14:43.055Z,1.10
2018-08-06T12:17:10.888Z,1.13
2018-08-06T12:19:38.707Z,1.00
2018-08-06T12:22:06.533Z,0.93
2018-08-06T12:24:34.344Z,0.93
2018-08-06T12:29:36.563Z,0.93
2018-08-06T12:32:04.410Z,1.13
2018-08-06T12:34:32.277Z,0.90
2018-08-06T12:37:00.098Z,0.90
2018-08-06T12:39:27.948Z,1.00
2018-08-06T12:41:55.800Z,1.30
2018-08-06T12:44:23.634Z,1.43
2018-08-06T12:46:51.467Z,1.17
2018-08-06T12:49:19.291Z,1.40
2018-08-06T12:51:47.219Z,1.37
2018-08-06T12:54:14.968Z,0.80
2018-08-06T12:56:42.828Z,1.03
2018-08-06T12:59:10.641Z,1.10
2018-08-06T13:01:38.484Z,1.00
2018-08-06T13:04:06.328Z,1.60
2018-08-06T13:06:34.202Z,1.57
2018-08-06T13:09:02.032Z,1.20
2018-08-06T13:11:29.853Z,0.97
2018-08-06T13:13:57.973Z,1.00
2018-08-06T13:16:25.801Z,1.00
2018-08-06T13:18:53.633Z,1.00
2018-08-06T13:21:21.453Z,1.30
2018-08-06T13:23:49.298Z,1.00
2018-08-06T13:26:17.291Z,1.33
2018-08-06T13:28:45.334Z,1.40
2018-08-06T13:31:13.375Z,1.50
2018-08-06T13:33:41.372Z,1.30
2018-08-06T13:36:09.367Z,1.40
2018-08-06T13:38:37.392Z,1.50
2018-08-06T13:41:05.392Z,1.17
2018-08-06T13:43:33.420Z,1.37
2018-08-06T13:46:01.429Z,1.27
2018-08-06T13:48:29.446Z,1.20
2018-08-06T13:50:57.448Z,1.60
2018-08-06T13:53:25.578Z,2.30
2018-08-06T13:55:53.536Z,1.40
2018-08-06T13:58:21.545Z,1.47
2018-08-06T14:00:49.557Z,1.20
2018-08-06T14:03:17.384Z,1.30
2018-08-06T14:05:45.397Z,1.87
2018-08-06T14:08:13.415Z,1.50
2018-08-06T14:10:41.433Z,1.30
2018-08-06T14:13:09.468Z,0.97
2018-08-06T14:15:37.504Z,1.50
2018-08-06T14:18:05.514Z,1.70
2018-08-06T14:20:33.530Z,1.40
2018-08-06T14:23:01.547Z,1.60
2018-08-06T14:25:29.603Z,1.80
2018-08-06T14:27:57.618Z,1.20
2018-08-06T14:30:25.641Z,1.20
2018-08-06T14:32:53.644Z,1.30
2018-08-06T14:35:21.669Z,1.93
2018-08-06T14:37:49.733Z,1.20
2018-08-06T14:40:18.965Z,1.33
2018-08-06T14:42:47.282Z,1.33
2018-08-06T14:45:15.332Z,1.10
2018-08-06T14:47:43.389Z,1.50
2018-08-06T14:50:12.865Z,1.40
2018-08-06T14:52:40.889Z,1.70
2018-08-06T14:55:08.905Z,1.60
2018-08-06T14:57:37.833Z,1.43
2018-08-06T15:00:19.668Z,1.30
2018-08-06T15:02:48.312Z,1.40
2018-08-06T15:05:16.316Z,1.70
2018-08-06T15:07:44.346Z,1.47
2018-08-06T15:10:13.417Z,1.33
2018-08-06T15:12:41.493Z,1.67
2018-08-06T15:15:12.163Z,1.20
2018-08-06T15:17:40.128Z,1.27
2018-08-06T15:20:10.516Z,1.10
2018-08-06T15:22:38.730Z,1.27
2018-08-06T15:25:09.689Z,1.30
2018-08-06T15:27:37.708Z,1.20
2018-08-06T15:30:06.024Z,1.30
2018-08-06T15:32:34.057Z,1.50
2018-08-06T15:35:02.057Z,1.80
2018-08-06T15:37:30.153Z,1.30
2018-08-06T15:39:58.096Z,1.10
2018-08-06T15:42:26.101Z,1.70
2018-08-06T15:44:54.099Z,1.60
2018-08-06T15:47:22.099Z,1.30
2018-08-06T15:49:50.146Z,1.10
2018-08-06T15:52:18.152Z,1.20
2018-08-06T15:54:46.187Z,1.20
2018-08-06T15:57:14.187Z,2.10
2018-08-06T15:59:42.209Z,1.40
2018-08-06T16:02:10.227Z,1.37
2018-08-06T16:04:38.240Z,1.50
2018-08-06T16:07:06.264Z,1.20
2018-08-06T16:09:34.289Z,1.30
2018-08-06T16:12:02.304Z,2.17
2018-08-06T16:14:30.314Z,1.00
2018-08-06T16:16:58.361Z,1.20
2018-08-06T16:19:26.425Z,1.47
2018-08-06T16:21:54.478Z,0.90
2018-08-06T16:24:22.492Z,1.50
2018-08-06T16:26:50.506Z,1.50
2018-08-06T16:29:18.531Z,1.70
2018-08-06T16:31:46.542Z,1.50
2018-08-06T16:34:14.548Z,1.20
2018-08-06T16:36:42.553Z,1.70
2018-08-06T16:39:12.886Z,1.30
2018-08-06T16:41:41.076Z,0.97
2018-08-06T16:44:09.393Z,2.23
2018-08-06T16:46:37.504Z,1.17
2018-08-06T16:49:05.519Z,1.30
2018-08-06T16:51:33.641Z,1.80
2018-08-06T16:54:01.670Z,1.40
2018-08-06T16:56:29.722Z,1.50
2018-08-06T16:58:57.767Z,1.70
2018-08-06T17:01:25.862Z,1.63
2018-08-06T17:03:53.882Z,2.00
2018-08-06T17:06:21.893Z,1.37
2018-08-06T17:08:49.904Z,1.20
2018-08-06T17:11:17.917Z,1.27
2018-08-06T17:13:45.921Z,1.63
2018-08-06T17:16:13.992Z,1.30
2018-08-06T17:18:42.018Z,1.40
2018-08-06T17:21:10.046Z,2.27
2018-08-06T17:23:38.071Z,1.57
2018-08-06T17:26:06.091Z,1.57
2018-08-06T17:28:34.110Z,1.27
2018-08-06T17:31:02.104Z,1.70
2018-08-06T17:33:30.139Z,1.43
2018-08-06T17:35:58.156Z,1.47
2018-08-06T17:38:26.160Z,1.43
2018-08-06T17:40:54.169Z,1.37
2018-08-06T17:43:22.217Z,1.73
2018-08-06T17:45:50.213Z,1.77
2018-08-06T17:48:18.217Z,1.37
2018-08-06T17:50:46.280Z,1.50
2018-08-06T17:53:14.331Z,1.40
2018-08-06T17:55:42.399Z,2.20
2018-08-06T17:58:10.366Z,1.70
2018-08-06T18:00:38.369Z,1.83
2018-08-06T18:03:06.230Z,1.53
2018-08-06T18:05:34.237Z,2.30
2018-08-06T18:08:02.249Z,1.77
2018-08-06T18:10:30.263Z,1.40
2018-08-06T18:12:58.264Z,1.37
2018-08-06T18:15:26.286Z,1.90
2018-08-06T18:17:54.313Z,1.23
2018-08-06T18:20:22.334Z,1.37
2018-08-06T18:22:50.339Z,1.53
2018-08-06T18:25:19.497Z,2.17
2018-08-06T18:27:48.223Z,1.83
2018-08-06T18:30:17.909Z,1.77
2018-08-06T18:32:45.913Z,2.10
2018-08-06T18:35:15.364Z,2.60
2018-08-06T18:37:43.372Z,3.27
2018-08-06T18:40:12.165Z,3.33
2018-08-06T18:42:40.247Z,2.37
2018-08-06T18:45:10.813Z,1.60
2018-08-06T18:47:38.885Z,2.57
2018-08-06T18:50:07.933Z,2.03
2018-08-06T18:52:35.947Z,1.50
2018-08-06T18:55:04.745Z,2.10
2018-08-06T18:57:32.770Z,2.20
2018-08-06T19:00:00.788Z,1.93
2018-08-06T19:02:28.798Z,2.37
2018-08-06T19:04:56.818Z,2.10
2018-08-06T19:07:24.884Z,1.83
2018-08-06T19:09:52.860Z,1.80
2018-08-06T19:12:26.327Z,1.90
2018-08-06T19:14:54.338Z,1.90
2018-08-06T19:17:22.354Z,2.00
2018-08-06T19:19:50.422Z,2.03
2018-08-06T19:22:18.401Z,2.53
2018-08-06T19:24:51.819Z,1.83
2018-08-06T19:27:19.812Z,1.80
2018-08-06T19:29:47.844Z,1.97
2018-08-06T19:32:15.870Z,2.03
2018-08-06T19:34:43.751Z,1.87
2018-08-06T19:37:17.108Z,1.57
2018-08-06T19:39:45.162Z,1.60
2018-08-06T19:42:13.175Z,1.90
2018-08-06T19:44:41.003Z,2.27
2018-08-06T19:47:09.021Z,2.30
2018-08-06T19:49:42.654Z,2.20
2018-08-06T19:52:10.674Z,1.70
2018-08-06T19:54:38.971Z,1.67
2018-08-06T19:57:07.000Z,1.80
2018-08-06T19:59:34.998Z,1.70
2018-08-06T20:02:03.171Z,2.00
2018-08-06T20:04:31.010Z,2.00
2018-08-06T20:06:59.049Z,1.77
2018-08-06T20:09:27.052Z,2.03
2018-08-06T20:11:55.198Z,1.90
2018-08-06T20:14:23.220Z,1.83
2018-08-06T20:16:51.241Z,2.60
2018-08-06T20:19:19.313Z,1.70
2018-08-06T20:21:47.315Z,1.97
2018-08-06T20:24:15.775Z,2.00
2018-08-06T20:26:43.821Z,1.87
2018-08-06T20:29:11.897Z,2.00
2018-08-06T20:31:39.905Z,1.50
2018-08-06T20:34:07.723Z,3.27
2018-08-06T20:36:35.720Z,2.10
2018-08-06T20:39:05.113Z,1.90
2018-08-06T20:41:33.120Z,2.20
2018-08-06T20:44:01.129Z,1.87
2018-08-06T20:46:29.146Z,1.90
2018-08-06T20:48:57.149Z,1.83
2018-08-06T20:51:25.165Z,2.37
2018-08-06T20:53:53.170Z,2.40
2018-08-06T20:56:21.187Z,2.20
2018-08-06T20:58:49.193Z,2.40
2018-08-06T21:01:17.240Z,1.60
2018-08-06T21:03:45.224Z,2.40
2018-08-06T21:06:13.243Z,1.70
2018-08-06T21:08:41.277Z,1.83
2018-08-06T21:11:09.304Z,2.20
2018-08-06T21:13:37.331Z,1.87
2018-08-06T21:16:05.375Z,2.00
2018-08-06T21:18:33.377Z,2.00
2018-08-06T21:21:01.473Z,1.97
2018-08-06T21:23:29.478Z,2.47
2018-08-06T21:25:57.515Z,2.03
2018-08-06T21:28:25.517Z,1.90
2018-08-06T21:30:53.525Z,2.33
2018-08-06T21:33:21.540Z,2.43
2018-08-06T21:35:49.561Z,2.10
2018-08-06T21:38:17.574Z,2.23
2018-08-06T21:40:45.576Z,2.20
2018-08-06T21:43:13.589Z,2.20
2018-08-06T21:45:41.620Z,2.07
2018-08-06T21:48:09.630Z,2.43
2018-08-06T21:50:37.698Z,2.27
2018-08-06T21:53:05.646Z,2.30
2018-08-06T21:55:33.672Z,1.93
2018-08-06T21:58:01.689Z,2.03
2018-08-06T22:00:34.315Z,2.13
2018-08-06T22:03:03.641Z,2.07
2018-08-06T22:05:31.786Z,2.20
2018-08-06T22:07:59.797Z,2.30
2018-08-06T22:10:27.890Z,1.87
2018-08-06T22:12:55.902Z,2.40
2018-08-06T22:15:23.909Z,2.17
2018-08-06T22:17:52.009Z,2.50
2018-08-06T22:20:20.012Z,2.00
2018-08-06T22:22:48.017Z,2.50
2018-08-06T22:25:16.108Z,2.10
2018-08-06T22:27:44.135Z,1.90
2018-08-06T22:30:12.377Z,2.33
2018-08-06T22:32:40.402Z,2.67
2018-08-06T22:35:10.317Z,2.37
2018-08-06T22:37:38.331Z,2.33
2018-08-06T22:40:07.543Z,2.83
2018-08-06T22:42:35.561Z,2.70
2018-08-06T22:45:03.954Z,2.77
2018-08-06T22:47:32.092Z,3.00
2018-08-06T22:50:00.180Z,2.20
2018-08-06T22:52:28.194Z,2.40
2018-08-06T22:54:56.192Z,2.73
2018-08-06T22:57:24.353Z,3.43
2018-08-06T22:59:52.389Z,2.10
2018-08-06T23:02:20.445Z,2.50
2018-08-06T23:04:48.470Z,2.90
2018-08-06T23:07:16.499Z,2.40
2018-08-06T23:09:44.489Z,2.40
2018-08-06T23:12:12.511Z,2.20
2018-08-06T23:14:40.510Z,2.27
2018-08-06T23:17:08.561Z,2.40
2018-08-06T23:19:36.628Z,2.90
2018-08-06T23:22:04.634Z,3.93
2018-08-06T23:24:32.647Z,2.93
2018-08-06T23:27:00.649Z,3.17
2018-08-06T23:29:28.660Z,2.50
2018-08-06T23:31:56.672Z,3.50
2018-08-06T23:34:24.739Z,2.27
2018-08-06T23:36:52.746Z,2.90
2018-08-06T23:39:20.753Z,2.67
2018-08-06T23:41:48.770Z,3.30
2018-08-06T23:44:16.778Z,2.77
2018-08-06T23:46:44.788Z,2.67
2018-08-06T23:49:12.806Z,3.27
2018-08-06T23:51:40.805Z,2.73
2018-08-06T23:54:09.102Z,3.00
2018-08-06T23:56:37.237Z,2.70
2018-08-06T23:59:05.293Z,2.70
